Time,TemperatureF,DewpointF,PressureIn,WindDirection,WindDirectionDegrees,WindSpeedMPH,WindSpeedGustMPH,Humidity,HourlyPrecipIn,Conditions,Clouds,dailyrainin,SoftwareType,DateUTC
2013-11-12 00:00:00,65.9,63.2,30.08,North,360,0.0,0.0,91,0.00,,---,0.00,VWS V14.01,2013-11-12 05:00:00,
2013-11-12 00:01:00,65.9,63.2,30.08,North,360,0.0,0.0,91,0.00,,---,0.00,VWS V14.01,2013-11-12 05:01:00,
2013-11-12 00:02:00,65.9,63.2,30.08,North,360,0.0,0.0,91,0.00,,---,0.00,VWS V14.01,2013-11-12 05:02:00,
2013-11-12 00:07:00,65.8,63.1,30.08,North,360,0.0,0.0,91,0.00,,---,0.00,VWS V14.01,2013-11-12 05:07:00,
2013-11-12 00:10:00,65.7,63.3,30.07,North,360,0.0,0.0,92,0.00,,---,0.00,VWS V14.01,2013-11-12 05:10:00,
2013-11-12 00:12:00,65.7,63.3,30.08,North,360,0.0,0.0,92,0.00,,---,0.00,VWS V14.01,2013-11-12 05:12:00,
2013-11-12 00:17:00,65.6,63.2,30.07,North,360,0.0,0.0,92,0.00,,---,0.00,VWS V14.01,2013-11-12 05:17:00,
2013-11-12 00:20:00,65.4,63.0,30.07,North,360,0.0,0.0,92,0.00,,---,0.00,VWS V14.01,2013-11-12 05:20:00,
2013-11-12 00:22:00,65.4,63.0,30.07,North,360,0.0,0.0,92,0.00,,---,0.00,VWS V14.01,2013-11-12 05:22:00,
2013-11-12 00:27:00,65.2,62.8,30.07,North,360,0.0,0.0,92,0.00,,---,0.00,VWS V14.01,2013-11-12 05:27:00,
2013-11-12 00:30:00,65.1,62.7,30.07,North,360,0.0,0.0,92,0.00,,---,0.00,VWS V14.01,2013-11-12 05:30:00,
2013-11-12 00:32:00,65.0,62.6,30.07,North,360,0.0,0.0,92,0.00,,---,0.00,VWS V14.01,2013-11-12 05:32:00,
2013-11-12 00:37:00,64.9,62.5,30.07,North,360,0.0,0.0,92,0.00,,---,0.00,VWS V14.01,2013-11-12 05:37:00,
2013-11-12 00:40:00,64.8,62.4,30.07,North,360,0.0,0.0,92,0.00,,---,0.00,VWS V14.01,2013-11-12 05:40:00,
2013-11-12 00:42:00,64.8,62.4,30.07,North,360,0.0,0.0,92,0.00,,---,0.00,VWS V14.01,2013-11-12 05:42:00,
2013-11-12 00:47:00,64.6,62.2,30.07,North,360,0.0,0.0,92,0.00,,---,0.00,VWS V14.01,2013-11-12 05:47:00,
2013-11-12 00:50:00,64.5,62.1,30.07,North,360,0.0,0.0,92,0.00,,---,0.00,VWS V14.01,2013-11-12 05:50:00,
2013-11-12 00:52:00,64.5,62.1,30.07,North,360,0.0,0.0,92,0.00,,---,0.00,VWS V14.01,2013-11-12 05:52:00,
2013-11-12 00:57:00,64.5,62.4,30.07,North,360,0.0,0.0,93,0.00,,---,0.00,VWS V14.01,2013-11-12 05:57:00,
2013-11-12 01:00:00,64.5,62.4,30.07,North,360,0.0,0.0,93,0.00,,---,0.00,VWS V14.01,2013-11-12 06:00:00,
2013-11-12 01:02:00,64.6,62.5,30.07,North,360,0.0,0.0,93,0.00,,---,0.00,VWS V14.01,2013-11-12 06:02:00,
2013-11-12 01:07:00,64.9,63.1,30.07,North,360,2.0,2.0,94,0.00,,---,0.00,VWS V14.01,2013-11-12 06:07:00,
2013-11-12 01:10:00,65.0,63.2,30.07,North,360,1.0,2.0,94,0.00,,---,0.00,VWS V14.01,2013-11-12 06:10:00,
2013-11-12 01:12:00,65.1,63.3,30.06,North,360,1.0,2.0,94,0.00,,---,0.00,VWS V14.01,2013-11-12 06:12:00,
2013-11-12 01:17:00,65.2,63.4,30.07,North,360,1.0,2.0,94,0.00,,---,0.00,VWS V14.01,2013-11-12 06:17:00,
2013-11-12 01:20:00,65.2,63.4,30.06,North,360,0.0,3.0,94,0.00,,---,0.00,VWS V14.01,2013-11-12 06:20:00,
2013-11-12 01:22:00,65.2,63.4,30.06,North,360,0.0,0.0,94,0.00,,---,0.00,VWS V14.01,2013-11-12 06:22:00,
2013-11-12 01:27:00,65.2,63.4,30.06,North,360,0.0,0.0,94,0.00,,---,0.00,VWS V14.01,2013-11-12 06:27:00,
2013-11-12 01:30:00,65.1,63.3,30.06,North,360,0.0,0.0,94,0.00,,---,0.00,VWS V14.01,2013-11-12 06:30:00,
2013-11-12 01:32:00,65.1,63.3,30.06,North,360,0.0,1.0,94,0.00,,---,0.00,VWS V14.01,2013-11-12 06:32:00,
2013-11-12 01:37:00,64.9,63.1,30.06,North,360,0.0,1.0,94,0.00,,---,0.00,VWS V14.01,2013-11-12 06:37:00,
2013-11-12 01:40:00,64.8,63.0,30.06,North,360,0.0,1.0,94,0.00,,---,0.00,VWS V14.01,2013-11-12 06:40:00,
2013-11-12 01:42:00,64.8,63.0,30.06,North,360,0.0,0.0,94,0.00,,---,0.00,VWS V14.01,2013-11-12 06:42:00,
2013-11-12 01:47:00,64.7,62.9,30.06,North,360,0.0,0.0,94,0.00,,---,0.00,VWS V14.01,2013-11-12 06:47:00,
2013-11-12 01:50:00,64.6,62.8,30.06,North,360,0.0,0.0,94,0.00,,---,0.00,VWS V14.01,2013-11-12 06:50:00,
2013-11-12 01:52:00,64.6,62.8,30.06,North,360,0.0,0.0,94,0.00,,---,0.00,VWS V14.01,2013-11-12 06:52:00,
2013-11-12 01:57:00,64.5,62.7,30.05,North,360,0.0,0.0,94,0.00,,---,0.00,VWS V14.01,2013-11-12 06:57:00,
2013-11-12 02:00:00,64.4,62.6,30.06,North,360,0.0,0.0,94,0.00,,---,0.00,VWS V14.01,2013-11-12 07:00:00,
2013-11-12 02:02:00,64.4,62.6,30.05,North,360,0.0,0.0,94,0.00,,---,0.00,VWS V14.01,2013-11-12 07:02:00,
2013-11-12 02:07:00,64.3,62.5,30.06,North,360,0.0,0.0,94,0.00,,---,0.00,VWS V14.01,2013-11-12 07:07:00,
2013-11-12 02:10:00,64.3,62.5,30.06,North,360,0.0,0.0,94,0.00,,---,0.00,VWS V14.01,2013-11-12 07:10:00,
2013-11-12 02:12:00,64.3,62.5,30.06,North,360,0.0,0.0,94,0.00,,---,0.00,VWS V14.01,2013-11-12 07:12:00,
2013-11-12 02:17:00,64.3,62.8,30.06,North,360,0.0,0.0,95,0.00,,---,0.00,VWS V14.01,2013-11-12 07:17:00,
2013-11-12 02:20:00,64.3,62.8,30.06,North,360,0.0,0.0,95,0.00,,---,0.00,VWS V14.01,2013-11-12 07:20:00,
2013-11-12 02:22:00,64.3,62.8,30.06,North,360,0.0,0.0,95,0.00,,---,0.00,VWS V14.01,2013-11-12 07:22:00,
2013-11-12 02:27:00,64.2,62.7,30.06,North,360,0.0,0.0,95,0.00,,---,0.00,VWS V14.01,2013-11-12 07:27:00,
2013-11-12 02:30:00,64.1,62.6,30.06,North,360,0.0,0.0,95,0.00,,---,0.00,VWS V14.01,2013-11-12 07:30:00,
2013-11-12 02:32:00,64.1,62.6,30.06,North,360,0.0,0.0,95,0.00,,---,0.00,VWS V14.01,2013-11-12 07:32:00,
2013-11-12 02:37:00,64.0,62.5,30.06,North,360,0.0,2.0,95,0.00,,---,0.00,VWS V14.01,2013-11-12 07:37:00,
2013-11-12 02:40:00,64.0,62.2,30.06,North,360,0.0,2.0,94,0.00,,---,0.00,VWS V14.01,2013-11-12 07:40:00,
2013-11-12 02:42:00,64.0,62.2,30.06,North,360,0.0,0.0,94,0.00,,---,0.00,VWS V14.01,2013-11-12 07:42:00,
2013-11-12 02:47:00,63.9,62.4,30.06,North,360,0.0,1.0,95,0.00,,---,0.00,VWS V14.01,2013-11-12 07:47:00,
2013-11-12 02:50:00,63.8,62.3,30.06,North,360,0.0,1.0,95,0.00,,---,0.00,VWS V14.01,2013-11-12 07:50:00,
2013-11-12 02:52:00,63.9,62.4,30.06,North,360,0.0,0.0,95,0.00,,---,0.00,VWS V14.01,2013-11-12 07:52:00,
2013-11-12 02:57:00,63.9,62.4,30.06,North,360,0.0,2.0,95,0.00,,---,0.00,VWS V14.01,2013-11-12 07:57:00,
2013-11-12 03:00:00,63.8,62.3,30.06,North,360,1.0,2.0,95,0.00,,---,0.00,VWS V14.01,2013-11-12 08:00:00,
2013-11-12 03:02:00,63.8,62.3,30.06,North,360,0.0,2.0,95,0.00,,---,0.00,VWS V14.01,2013-11-12 08:02:00,
2013-11-12 03:07:00,63.9,62.4,30.06,North,360,2.0,3.0,95,0.00,,---,0.00,VWS V14.01,2013-11-12 08:07:00,
2013-11-12 03:10:00,64.0,62.5,30.06,North,360,0.0,4.0,95,0.00,,---,0.00,VWS V14.01,2013-11-12 08:10:00,
2013-11-12 03:12:00,64.0,62.5,30.06,North,360,1.0,3.0,95,0.00,,---,0.00,VWS V14.01,2013-11-12 08:12:00,
2013-11-12 03:17:00,64.2,62.7,30.06,North,360,0.0,3.0,95,0.00,,---,0.00,VWS V14.01,2013-11-12 08:17:00,
2013-11-12 03:20:00,64.2,62.7,30.06,North,360,0.0,3.0,95,0.00,,---,0.00,VWS V14.01,2013-11-12 08:20:00,
2013-11-12 03:22:00,64.2,62.7,30.06,North,360,0.0,0.0,95,0.00,,---,0.00,VWS V14.01,2013-11-12 08:22:00,
2013-11-12 03:27:00,64.2,62.7,30.05,North,360,0.0,0.0,95,0.00,,---,0.00,VWS V14.01,2013-11-12 08:27:00,
2013-11-12 03:30:00,64.1,62.6,30.05,North,360,0.0,0.0,95,0.00,,---,0.00,VWS V14.01,2013-11-12 08:30:00,
2013-11-12 03:32:00,64.1,62.6,30.05,North,360,0.0,0.0,95,0.00,,---,0.00,VWS V14.01,2013-11-12 08:32:00,
2013-11-12 03:37:00,64.1,62.6,30.05,North,360,0.0,0.0,95,0.00,,---,0.00,VWS V14.01,2013-11-12 08:37:00,
2013-11-12 03:40:00,64.1,62.6,30.05,North,360,0.0,0.0,95,0.00,,---,0.00,VWS V14.01,2013-11-12 08:40:00,
2013-11-12 03:42:00,64.0,62.5,30.05,North,360,0.0,0.0,95,0.00,,---,0.00,VWS V14.01,2013-11-12 08:42:00,
2013-11-12 03:47:00,63.7,62.2,30.05,North,360,0.0,0.0,95,0.00,,---,0.00,VWS V14.01,2013-11-12 08:47:00,
2013-11-12 03:50:00,63.5,62.0,30.05,North,360,0.0,0.0,95,0.00,,---,0.00,VWS V14.01,2013-11-12 08:50:00,
2013-11-12 03:52:00,63.4,62.0,30.05,North,360,0.0,0.0,95,0.00,,---,0.00,VWS V14.01,2013-11-12 08:52:00,
2013-11-12 03:57:00,63.2,61.8,30.05,North,360,0.0,0.0,95,0.00,,---,0.00,VWS V14.01,2013-11-12 08:57:00,
2013-11-12 04:00:00,63.1,61.7,30.05,North,360,0.0,0.0,95,0.00,,---,0.00,VWS V14.01,2013-11-12 09:00:00,
2013-11-12 04:02:00,63.1,61.7,30.05,North,360,0.0,0.0,95,0.00,,---,0.00,VWS V14.01,2013-11-12 09:02:00,
2013-11-12 04:07:00,62.9,61.5,30.05,North,360,0.0,0.0,95,0.00,,---,0.00,VWS V14.01,2013-11-12 09:07:00,
2013-11-12 04:10:00,62.9,61.5,30.05,North,360,0.0,0.0,95,0.00,,---,0.00,VWS V14.01,2013-11-12 09:10:00,
2013-11-12 04:12:00,62.9,61.5,30.05,North,360,0.0,0.0,95,0.00,,---,0.00,VWS V14.01,2013-11-12 09:12:00,
2013-11-12 04:17:00,62.8,61.3,30.05,North,360,0.0,0.0,95,0.00,,---,0.00,VWS V14.01,2013-11-12 09:17:00,
2013-11-12 04:20:00,62.5,61.0,30.05,North,360,0.0,0.0,95,0.00,,---,0.00,VWS V14.01,2013-11-12 09:20:00,
2013-11-12 04:22:00,62.4,61.0,30.05,North,360,0.0,0.0,95,0.00,,---,0.00,VWS V14.01,2013-11-12 09:22:00,
2013-11-12 04:27:00,62.2,60.8,30.05,North,360,0.0,0.0,95,0.00,,---,0.00,VWS V14.01,2013-11-12 09:27:00,
2013-11-12 04:30:00,62.0,60.6,30.05,North,360,0.0,0.0,95,0.00,,---,0.00,VWS V14.01,2013-11-12 09:30:00,
2013-11-12 04:32:00,62.0,60.6,30.05,North,360,0.0,0.0,95,0.00,,---,0.00,VWS V14.01,2013-11-12 09:32:00,
2013-11-12 04:37:00,61.8,60.4,30.06,North,360,0.0,0.0,95,0.00,,---,0.00,VWS V14.01,2013-11-12 09:37:00,
2013-11-12 04:40:00,61.8,60.4,30.06,North,360,0.0,0.0,95,0.00,,---,0.00,VWS V14.01,2013-11-12 09:40:00,
2013-11-12 04:42:00,61.7,60.3,30.06,North,360,0.0,0.0,95,0.00,,---,0.00,VWS V14.01,2013-11-12 09:42:00,
2013-11-12 04:47:00,61.7,60.3,30.06,North,360,0.0,0.0,95,0.00,,---,0.00,VWS V14.01,2013-11-12 09:47:00,
2013-11-12 04:50:00,61.7,60.5,30.06,North,360,0.0,0.0,96,0.00,,---,0.00,VWS V14.01,2013-11-12 09:50:00,
2013-11-12 04:52:00,61.8,60.7,30.06,North,360,0.0,0.0,96,0.00,,---,0.00,VWS V14.01,2013-11-12 09:52:00,
2013-11-12 04:56:00,61.7,60.5,30.06,North,360,0.0,0.0,96,0.00,,---,0.00,VWS V14.01,2013-11-12 09:56:00,
2013-11-12 05:00:00,61.8,60.7,30.06,North,360,0.0,0.0,96,0.00,,---,0.00,VWS V14.01,2013-11-12 10:00:00,
2013-11-12 05:01:00,61.8,60.7,30.06,North,360,0.0,0.0,96,0.00,,---,0.00,VWS V14.01,2013-11-12 10:01:00,
2013-11-12 05:06:00,61.8,60.7,30.06,North,360,0.0,0.0,96,0.00,,---,0.00,VWS V14.01,2013-11-12 10:06:00,
2013-11-12 05:10:00,61.8,60.7,30.06,North,360,0.0,0.0,96,0.00,,---,0.00,VWS V14.01,2013-11-12 10:10:00,
2013-11-12 05:11:00,61.8,60.7,30.06,North,360,0.0,0.0,96,0.00,,---,0.00,VWS V14.01,2013-11-12 10:11:00,
2013-11-12 05:16:00,61.8,60.7,30.06,North,360,0.0,0.0,96,0.00,,---,0.00,VWS V14.01,2013-11-12 10:16:00,
2013-11-12 05:20:00,61.8,60.7,30.06,North,360,0.0,0.0,96,0.00,,---,0.00,VWS V14.01,2013-11-12 10:20:00,
2013-11-12 05:21:00,61.8,60.7,30.06,North,360,0.0,0.0,96,0.00,,---,0.00,VWS V14.01,2013-11-12 10:21:00,
2013-11-12 05:26:00,61.9,60.8,30.06,North,360,0.0,0.0,96,0.00,,---,0.00,VWS V14.01,2013-11-12 10:26:00,
2013-11-12 05:30:00,62.1,61.0,30.06,North,360,0.0,0.0,96,0.00,,---,0.00,VWS V14.01,2013-11-12 10:30:00,
2013-11-12 05:31:00,62.1,61.0,30.06,North,360,0.0,0.0,96,0.00,,---,0.00,VWS V14.01,2013-11-12 10:31:00,
2013-11-12 05:36:00,62.3,61.2,30.06,North,360,0.0,2.0,96,0.00,,---,0.00,VWS V14.01,2013-11-12 10:36:00,
2013-11-12 05:40:00,62.3,61.2,30.06,North,360,0.0,2.0,96,0.00,,---,0.00,VWS V14.01,2013-11-12 10:40:00,
2013-11-12 05:41:00,62.3,61.2,30.06,North,360,2.0,2.0,96,0.00,,---,0.00,VWS V14.01,2013-11-12 10:41:00,
2013-11-12 05:46:00,62.4,61.2,30.06,North,360,2.0,3.0,96,0.00,,---,0.00,VWS V14.01,2013-11-12 10:46:00,
2013-11-12 05:50:00,62.5,61.3,30.06,North,360,0.0,3.0,96,0.00,,---,0.00,VWS V14.01,2013-11-12 10:50:00,
2013-11-12 05:51:00,62.6,61.5,30.07,North,360,0.0,0.0,96,0.00,,---,0.00,VWS V14.01,2013-11-12 10:51:00,
2013-11-12 05:56:00,62.9,61.8,30.06,North,360,0.0,0.0,96,0.00,,---,0.00,VWS V14.01,2013-11-12 10:56:00,
2013-11-12 06:00:00,63.0,61.8,30.07,North,360,0.0,0.0,96,0.00,,---,0.00,VWS V14.01,2013-11-12 11:00:00,
2013-11-12 06:01:00,63.0,61.8,30.07,North,360,0.0,0.0,96,0.00,,---,0.00,VWS V14.01,2013-11-12 11:01:00,
2013-11-12 06:06:00,63.0,61.8,30.07,North,360,0.0,0.0,96,0.00,,---,0.00,VWS V14.01,2013-11-12 11:06:00,
2013-11-12 06:10:00,63.0,61.8,30.07,North,360,0.0,0.0,96,0.00,,---,0.00,VWS V14.01,2013-11-12 11:10:00,
2013-11-12 06:11:00,63.0,61.8,30.07,North,360,0.0,0.0,96,0.00,,---,0.00,VWS V14.01,2013-11-12 11:11:00,
2013-11-12 06:16:00,62.9,61.8,30.07,North,360,0.0,0.0,96,0.00,,---,0.00,VWS V14.01,2013-11-12 11:16:00,
2013-11-12 06:20:00,62.9,61.8,30.07,North,360,0.0,0.0,96,0.00,,---,0.00,VWS V14.01,2013-11-12 11:20:00,
2013-11-12 06:21:00,62.9,61.8,30.07,North,360,2.0,3.0,96,0.00,,---,0.00,VWS V14.01,2013-11-12 11:21:00,
2013-11-12 06:26:00,63.0,61.8,30.07,North,360,3.0,4.0,96,0.00,,---,0.00,VWS V14.01,2013-11-12 11:26:00,
2013-11-12 06:30:00,63.1,62.2,30.07,North,360,0.0,4.0,97,0.00,,---,0.00,VWS V14.01,2013-11-12 11:30:00,
2013-11-12 06:31:00,63.2,62.3,30.07,North,360,1.0,3.0,97,0.00,,---,0.00,VWS V14.01,2013-11-12 11:31:00,
2013-11-12 06:36:00,63.7,62.8,30.07,North,360,0.0,4.0,97,0.00,,---,0.00,VWS V14.01,2013-11-12 11:36:00,
2013-11-12 06:40:00,63.8,62.9,30.07,North,360,0.0,4.0,97,0.00,,---,0.00,VWS V14.01,2013-11-12 11:40:00,
2013-11-12 06:41:00,63.8,62.9,30.07,North,360,0.0,1.0,97,0.00,,---,0.00,VWS V14.01,2013-11-12 11:41:00,
2013-11-12 06:46:00,63.8,62.9,30.07,North,360,0.0,1.0,97,0.00,,---,0.00,VWS V14.01,2013-11-12 11:46:00,
2013-11-12 06:50:00,63.8,62.9,30.08,North,360,0.0,1.0,97,0.00,,---,0.00,VWS V14.01,2013-11-12 11:50:00,
2013-11-12 06:51:00,63.8,62.9,30.08,North,360,0.0,0.0,97,0.00,,---,0.00,VWS V14.01,2013-11-12 11:51:00,
2013-11-12 06:56:00,63.7,62.8,30.08,North,360,0.0,0.0,97,0.00,,---,0.00,VWS V14.01,2013-11-12 11:56:00,
2013-11-12 07:00:00,63.7,62.5,30.07,North,360,0.0,0.0,96,0.00,,---,0.00,VWS V14.01,2013-11-12 12:00:00,
2013-11-12 07:01:00,63.7,62.5,30.07,North,360,0.0,0.0,96,0.00,,---,0.00,VWS V14.01,2013-11-12 12:01:00,
2013-11-12 07:06:00,63.6,62.4,30.08,North,360,0.0,0.0,96,0.00,,---,0.00,VWS V14.01,2013-11-12 12:06:00,
2013-11-12 07:10:00,63.6,62.4,30.07,North,360,0.0,0.0,96,0.00,,---,0.00,VWS V14.01,2013-11-12 12:10:00,
2013-11-12 07:11:00,63.6,62.4,30.07,North,360,0.0,0.0,96,0.00,,---,0.00,VWS V14.01,2013-11-12 12:11:00,
2013-11-12 07:16:00,63.6,62.4,30.07,North,360,0.0,0.0,96,0.00,,---,0.00,VWS V14.01,2013-11-12 12:16:00,
2013-11-12 07:20:00,63.6,62.4,30.08,North,360,0.0,0.0,96,0.00,,---,0.00,VWS V14.01,2013-11-12 12:20:00,
2013-11-12 07:21:00,63.6,62.4,30.08,North,360,0.0,0.0,96,0.00,,---,0.00,VWS V14.01,2013-11-12 12:21:00,
2013-11-12 07:26:00,63.7,62.5,30.08,North,360,0.0,0.0,96,0.00,,---,0.00,VWS V14.01,2013-11-12 12:26:00,
2013-11-12 07:30:00,63.8,62.9,30.08,North,360,0.0,0.0,97,0.00,,---,0.00,VWS V14.01,2013-11-12 12:30:00,
2013-11-12 07:31:00,63.9,63.0,30.08,North,360,0.0,0.0,97,0.00,,---,0.00,VWS V14.01,2013-11-12 12:31:00,
2013-11-12 07:36:00,64.3,63.4,30.08,North,360,0.0,0.0,97,0.00,,---,0.00,VWS V14.01,2013-11-12 12:36:00,
2013-11-12 07:40:00,64.7,63.8,30.08,North,360,0.0,0.0,97,0.00,,---,0.00,VWS V14.01,2013-11-12 12:40:00,
2013-11-12 07:41:00,64.8,63.9,30.08,North,360,0.0,0.0,97,0.00,,---,0.00,VWS V14.01,2013-11-12 12:41:00,
2013-11-12 07:46:00,65.2,64.3,30.08,North,360,0.0,0.0,97,0.00,,---,0.00,VWS V14.01,2013-11-12 12:46:00,
2013-11-12 07:50:00,65.4,64.5,30.08,North,360,0.0,0.0,97,0.00,,---,0.00,VWS V14.01,2013-11-12 12:50:00,
2013-11-12 07:51:00,65.4,64.5,30.08,North,360,0.0,0.0,97,0.00,,---,0.00,VWS V14.01,2013-11-12 12:51:00,
2013-11-12 07:56:00,65.7,64.8,30.08,North,360,0.0,0.0,97,0.00,,---,0.00,VWS V14.01,2013-11-12 12:56:00,
2013-11-12 08:00:00,66.0,65.1,30.08,North,360,0.0,0.0,97,0.00,,---,0.00,VWS V14.01,2013-11-12 13:00:00,
2013-11-12 08:01:00,66.1,65.2,30.08,North,360,0.0,0.0,97,0.00,,---,0.00,VWS V14.01,2013-11-12 13:01:00,
2013-11-12 08:06:00,66.4,65.5,30.08,North,360,0.0,0.0,97,0.00,,---,0.00,VWS V14.01,2013-11-12 13:06:00,
2013-11-12 08:10:00,66.5,65.6,30.08,North,360,0.0,0.0,97,0.00,,---,0.00,VWS V14.01,2013-11-12 13:10:00,
2013-11-12 08:11:00,66.5,65.6,30.08,North,360,0.0,0.0,97,0.00,,---,0.00,VWS V14.01,2013-11-12 13:11:00,
2013-11-12 08:16:00,66.7,65.8,30.08,North,360,0.0,0.0,97,0.00,,---,0.00,VWS V14.01,2013-11-12 13:16:00,
2013-11-12 08:20:00,66.9,66.0,30.08,North,360,0.0,4.0,97,0.00,,---,0.00,VWS V14.01,2013-11-12 13:20:00,
2013-11-12 08:21:00,67.0,66.1,30.09,North,360,0.0,0.0,97,0.00,,---,0.00,VWS V14.01,2013-11-12 13:21:00,
2013-11-12 08:26:00,67.1,66.2,30.09,North,360,2.0,3.0,97,0.00,,---,0.00,VWS V14.01,2013-11-12 13:26:00,
2013-11-12 08:30:00,67.3,66.4,30.09,North,360,0.0,3.0,97,0.00,,---,0.00,VWS V14.01,2013-11-12 13:30:00,
2013-11-12 08:31:00,67.4,66.5,30.09,North,360,0.0,0.0,97,0.00,,---,0.00,VWS V14.01,2013-11-12 13:31:00,
2013-11-12 08:36:00,67.6,66.4,30.09,North,360,0.0,0.0,96,0.00,,---,0.00,VWS V14.01,2013-11-12 13:36:00,
2013-11-12 08:40:00,68.1,66.9,30.09,North,360,0.0,0.0,96,0.00,,---,0.00,VWS V14.01,2013-11-12 13:40:00,
2013-11-12 08:41:00,68.2,67.0,30.09,North,360,0.0,0.0,96,0.00,,---,0.00,VWS V14.01,2013-11-12 13:41:00,
2013-11-12 08:46:00,68.7,67.5,30.09,North,360,2.0,3.0,96,0.00,,---,0.00,VWS V14.01,2013-11-12 13:46:00,
2013-11-12 08:50:00,69.2,68.0,30.09,North,360,3.0,4.0,96,0.00,,---,0.00,VWS V14.01,2013-11-12 13:50:00,
2013-11-12 08:51:00,69.3,67.8,30.09,North,360,2.0,3.0,95,0.00,,---,0.00,VWS V14.01,2013-11-12 13:51:00,
2013-11-12 08:56:00,69.7,67.9,30.09,North,360,0.0,4.0,94,0.00,,---,0.00,VWS V14.01,2013-11-12 13:56:00,
2013-11-12 09:00:00,70.1,68.3,30.09,North,360,0.0,4.0,94,0.00,,---,0.00,VWS V14.01,2013-11-12 14:00:00,
2013-11-12 09:01:00,70.2,68.1,30.09,North,360,0.0,0.0,93,0.00,,---,0.00,VWS V14.01,2013-11-12 14:01:00,
2013-11-12 09:06:00,70.6,67.5,30.09,North,360,3.0,5.0,90,0.00,,---,0.00,VWS V14.01,2013-11-12 14:06:00,
2013-11-12 09:10:00,70.9,67.5,30.09,North,360,3.0,5.0,89,0.00,,---,0.00,VWS V14.01,2013-11-12 14:10:00,
2013-11-12 09:11:00,71.0,67.6,30.10,North,360,2.0,5.0,89,0.00,,---,0.00,VWS V14.01,2013-11-12 14:11:00,
2013-11-12 09:16:00,71.5,67.8,30.10,North,360,4.0,5.0,88,0.00,,---,0.00,VWS V14.01,2013-11-12 14:16:00,
2013-11-12 09:20:00,71.9,67.8,30.10,North,360,3.0,5.0,87,0.00,,---,0.00,VWS V14.01,2013-11-12 14:20:00,
2013-11-12 09:21:00,72.1,68.0,30.10,North,360,3.0,5.0,87,0.00,,---,0.00,VWS V14.01,2013-11-12 14:21:00,
2013-11-12 09:26:00,72.6,68.5,30.10,North,360,4.0,5.0,87,0.00,,---,0.00,VWS V14.01,2013-11-12 14:26:00,
2013-11-12 09:30:00,73.1,68.3,30.10,North,360,4.0,5.0,85,0.00,,---,0.00,VWS V14.01,2013-11-12 14:30:00,
2013-11-12 09:31:00,73.2,68.1,30.10,North,360,4.0,5.0,84,0.00,,---,0.00,VWS V14.01,2013-11-12 14:31:00,
2013-11-12 09:36:00,73.5,68.0,30.10,North,360,4.0,5.0,83,0.00,,---,0.00,VWS V14.01,2013-11-12 14:36:00,
2013-11-12 09:40:00,73.7,68.6,30.10,North,360,3.0,5.0,84,0.00,,---,0.00,VWS V14.01,2013-11-12 14:40:00,
2013-11-12 09:41:00,73.8,68.3,30.10,North,360,2.0,3.0,83,0.00,,---,0.00,VWS V14.01,2013-11-12 14:41:00,
2013-11-12 09:46:00,74.1,68.6,30.10,North,360,4.0,5.0,83,0.00,,---,0.00,VWS V14.01,2013-11-12 14:46:00,
2013-11-12 09:50:00,74.5,68.3,30.10,North,360,2.0,6.0,81,0.00,,---,0.00,VWS V14.01,2013-11-12 14:50:00,
2013-11-12 09:51:00,74.6,68.4,30.09,North,360,3.0,4.0,81,0.00,,---,0.00,VWS V14.01,2013-11-12 14:51:00,
2013-11-12 09:56:00,74.8,68.2,30.10,North,360,3.0,5.0,80,0.00,,---,0.00,VWS V14.01,2013-11-12 14:56:00,
2013-11-12 10:00:00,74.8,68.2,30.09,North,360,3.0,5.0,80,0.00,,---,0.00,VWS V14.01,2013-11-12 15:00:00,
2013-11-12 10:01:00,74.8,68.2,30.09,North,360,5.0,5.0,80,0.00,,---,0.00,VWS V14.01,2013-11-12 15:01:00,
2013-11-12 10:06:00,74.8,68.2,30.09,North,360,2.0,5.0,80,0.00,,---,0.00,VWS V14.01,2013-11-12 15:06:00,
2013-11-12 10:10:00,74.8,68.2,30.09,North,360,2.0,5.0,80,0.00,,---,0.00,VWS V14.01,2013-11-12 15:10:00,
2013-11-12 10:11:00,74.9,68.3,30.09,North,360,1.0,3.0,80,0.00,,---,0.00,VWS V14.01,2013-11-12 15:11:00,
2013-11-12 10:16:00,75.1,68.9,30.09,North,360,0.0,3.0,81,0.00,,---,0.00,VWS V14.01,2013-11-12 15:16:00,
2013-11-12 10:20:00,75.3,69.1,30.09,North,360,2.0,4.0,81,0.00,,---,0.00,VWS V14.01,2013-11-12 15:20:00,
2013-11-12 10:21:00,75.3,69.1,30.09,North,360,0.0,2.0,81,0.00,,---,0.00,VWS V14.01,2013-11-12 15:21:00,
2013-11-12 10:26:00,75.6,69.4,30.09,North,360,1.0,4.0,81,0.00,,---,0.00,VWS V14.01,2013-11-12 15:26:00,
2013-11-12 10:30:00,75.8,69.6,30.09,North,360,3.0,5.0,81,0.00,,---,0.00,VWS V14.01,2013-11-12 15:30:00,
2013-11-12 10:31:00,75.9,69.3,30.08,North,360,3.0,4.0,80,0.00,,---,0.00,VWS V14.01,2013-11-12 15:31:00,
2013-11-12 10:36:00,76.1,69.1,30.08,North,360,5.0,6.0,79,0.00,,---,0.00,VWS V14.01,2013-11-12 15:36:00,
2013-11-12 10:40:00,76.2,69.6,30.08,North,360,3.0,6.0,80,0.00,,---,0.00,VWS V14.01,2013-11-12 15:40:00,
2013-11-12 10:41:00,76.3,69.3,30.08,North,360,2.0,3.0,79,0.00,,---,0.00,VWS V14.01,2013-11-12 15:41:00,
2013-11-12 10:46:00,76.3,68.9,30.08,North,360,3.0,5.0,78,0.00,,---,0.00,VWS V14.01,2013-11-12 15:46:00,
2013-11-12 10:50:00,76.5,69.5,30.08,North,360,1.0,7.0,79,0.00,,---,0.00,VWS V14.01,2013-11-12 15:50:00,
2013-11-12 10:51:00,76.5,69.1,30.08,North,360,4.0,5.0,78,0.00,,---,0.00,VWS V14.01,2013-11-12 15:51:00,
2013-11-12 10:56:00,76.6,68.9,30.08,North,360,6.0,8.0,77,0.00,,---,0.00,VWS V14.01,2013-11-12 15:56:00,
2013-11-12 11:00:00,76.7,68.6,30.08,North,360,5.0,8.0,76,0.00,,---,0.00,VWS V14.01,2013-11-12 16:00:00,
2013-11-12 11:01:00,76.6,68.5,30.08,North,360,7.0,7.0,76,0.00,,---,0.00,VWS V14.01,2013-11-12 16:01:00,
2013-11-12 11:06:00,76.6,68.5,30.08,North,360,2.0,7.0,76,0.00,,---,0.00,VWS V14.01,2013-11-12 16:06:00,
2013-11-12 11:10:00,76.8,69.1,30.07,North,360,4.0,7.0,77,0.00,,---,0.00,VWS V14.01,2013-11-12 16:10:00,
2013-11-12 11:11:00,76.8,69.1,30.07,North,360,4.0,5.0,77,0.00,,---,0.00,VWS V14.01,2013-11-12 16:11:00,
2013-11-12 11:16:00,76.8,68.7,30.07,North,360,5.0,6.0,76,0.00,,---,0.00,VWS V14.01,2013-11-12 16:16:00,
2013-11-12 11:20:00,77.0,69.2,30.07,North,360,2.0,6.0,77,0.00,,---,0.00,VWS V14.01,2013-11-12 16:20:00,
2013-11-12 11:21:00,77.0,68.9,30.07,North,360,2.0,5.0,76,0.00,,---,0.00,VWS V14.01,2013-11-12 16:21:00,
2013-11-12 11:26:00,77.1,69.0,30.07,North,360,3.0,6.0,76,0.00,,---,0.00,VWS V14.01,2013-11-12 16:26:00,
2013-11-12 11:30:00,77.3,69.5,30.07,North,360,5.0,6.0,77,0.00,,---,0.00,VWS V14.01,2013-11-12 16:30:00,
2013-11-12 11:31:00,77.4,69.2,30.07,North,360,4.0,5.0,76,0.00,,---,0.00,VWS V14.01,2013-11-12 16:31:00,
2013-11-12 11:36:00,77.6,69.4,30.06,North,360,3.0,6.0,76,0.00,,---,0.00,VWS V14.01,2013-11-12 16:36:00,
2013-11-12 11:40:00,77.7,69.5,30.06,North,360,0.0,6.0,76,0.00,,---,0.00,VWS V14.01,2013-11-12 16:40:00,
2013-11-12 11:41:00,77.7,69.5,30.06,North,360,3.0,4.0,76,0.00,,---,0.00,VWS V14.01,2013-11-12 16:41:00,
2013-11-12 11:46:00,77.8,68.9,30.06,North,360,4.0,7.0,74,0.00,,---,0.00,VWS V14.01,2013-11-12 16:46:00,
2013-11-12 11:50:00,78.0,69.1,30.06,North,360,6.0,7.0,74,0.00,,---,0.00,VWS V14.01,2013-11-12 16:50:00,
2013-11-12 11:51:00,78.1,68.3,30.05,North,360,4.0,6.0,72,0.00,,---,0.00,VWS V14.01,2013-11-12 16:51:00,
2013-11-12 11:56:00,78.0,68.2,30.05,North,360,4.0,6.0,72,0.00,,---,0.00,VWS V14.01,2013-11-12 16:56:00,
2013-11-12 12:00:00,78.0,68.2,30.05,North,360,5.0,8.0,72,0.00,,---,0.00,VWS V14.01,2013-11-12 17:00:00,
2013-11-12 12:01:00,78.0,68.2,30.05,North,360,1.0,5.0,72,0.00,,---,0.00,VWS V14.01,2013-11-12 17:01:00,
2013-11-12 12:06:00,77.9,68.2,30.05,North,360,1.0,7.0,72,0.00,,---,0.00,VWS V14.01,2013-11-12 17:06:00,
2013-11-12 12:10:00,77.8,66.8,30.05,North,360,6.0,8.0,69,0.00,,---,0.00,VWS V14.01,2013-11-12 17:10:00,
2013-11-12 12:11:00,77.7,65.9,30.05,North,360,6.0,6.0,67,0.00,,---,0.00,VWS V14.01,2013-11-12 17:11:00,
2013-11-12 12:16:00,77.7,68.0,30.04,North,360,4.0,7.0,72,0.00,,---,0.00,VWS V14.01,2013-11-12 17:16:00,
2013-11-12 12:20:00,77.8,68.1,30.04,North,360,5.0,7.0,72,0.00,,---,0.00,VWS V14.01,2013-11-12 17:20:00,
2013-11-12 12:21:00,77.8,66.8,30.04,North,360,6.0,8.0,69,0.00,,---,0.00,VWS V14.01,2013-11-12 17:21:00,
2013-11-12 12:26:00,77.6,67.1,30.04,North,360,5.0,8.0,70,0.00,,---,0.00,VWS V14.01,2013-11-12 17:26:00,
2013-11-12 12:30:00,77.6,66.2,30.04,North,360,1.0,8.0,68,0.00,,---,0.00,VWS V14.01,2013-11-12 17:30:00,
2013-11-12 12:31:00,77.7,66.7,30.04,North,360,5.0,7.0,69,0.00,,---,0.00,VWS V14.01,2013-11-12 17:31:00,
2013-11-12 12:36:00,77.9,66.5,30.03,North,360,6.0,7.0,68,0.00,,---,0.00,VWS V14.01,2013-11-12 17:36:00,
2013-11-12 12:40:00,78.0,67.0,30.03,North,360,2.0,7.0,69,0.00,,---,0.00,VWS V14.01,2013-11-12 17:40:00,
2013-11-12 12:41:00,77.9,66.9,30.03,North,360,5.0,6.0,69,0.00,,---,0.00,VWS V14.01,2013-11-12 17:41:00,
2013-11-12 12:46:00,77.8,66.8,30.03,North,360,3.0,7.0,69,0.00,,---,0.00,VWS V14.01,2013-11-12 17:46:00,
2013-11-12 12:50:00,77.8,67.2,30.03,North,360,3.0,7.0,70,0.00,,---,0.00,VWS V14.01,2013-11-12 17:50:00,
2013-11-12 12:51:00,77.8,66.4,30.02,North,360,3.0,4.0,68,0.00,,---,0.00,VWS V14.01,2013-11-12 17:51:00,
2013-11-12 12:56:00,78.0,67.4,30.02,North,360,4.0,7.0,70,0.00,,---,0.00,VWS V14.01,2013-11-12 17:56:00,
2013-11-12 13:00:00,78.0,67.4,30.02,North,360,1.0,7.0,70,0.00,,---,0.00,VWS V14.01,2013-11-12 18:00:00,
2013-11-12 13:01:00,78.0,67.0,30.02,North,360,3.0,4.0,69,0.00,,---,0.00,VWS V14.01,2013-11-12 18:01:00,
2013-11-12 13:06:00,78.1,67.1,30.02,North,360,4.0,6.0,69,0.00,,---,0.00,VWS V14.01,2013-11-12 18:06:00,
2013-11-12 13:10:00,78.1,66.3,30.02,North,360,0.0,6.0,67,0.00,,---,0.00,VWS V14.01,2013-11-12 18:10:00,
2013-11-12 13:11:00,78.1,66.7,30.02,North,360,1.0,1.0,68,0.00,,---,0.00,VWS V14.01,2013-11-12 18:11:00,
2013-11-12 13:16:00,78.3,66.9,30.01,North,360,4.0,5.0,68,0.00,,---,0.00,VWS V14.01,2013-11-12 18:16:00,
2013-11-12 13:20:00,78.2,66.8,30.01,North,360,2.0,5.0,68,0.00,,---,0.00,VWS V14.01,2013-11-12 18:20:00,
2013-11-12 13:21:00,78.2,67.2,30.01,North,360,0.0,2.0,69,0.00,,---,0.00,VWS V14.01,2013-11-12 18:21:00,
2013-11-12 13:26:00,78.4,67.4,30.01,North,360,2.0,5.0,69,0.00,,---,0.00,VWS V14.01,2013-11-12 18:26:00,
2013-11-12 13:30:00,78.4,66.6,30.01,North,360,2.0,6.0,67,0.00,,---,0.00,VWS V14.01,2013-11-12 18:30:00,
2013-11-12 13:31:00,78.3,66.4,30.01,North,360,1.0,3.0,67,0.00,,---,0.00,VWS V14.01,2013-11-12 18:31:00,
2013-11-12 13:36:00,78.3,66.9,30.00,North,360,5.0,7.0,68,0.00,,---,0.00,VWS V14.01,2013-11-12 18:36:00,
2013-11-12 13:40:00,78.4,67.0,30.00,North,360,5.0,7.0,68,0.00,,---,0.00,VWS V14.01,2013-11-12 18:40:00,
2013-11-12 13:41:00,78.4,66.6,30.00,North,360,6.0,6.0,67,0.00,,---,0.00,VWS V14.01,2013-11-12 18:41:00,
2013-11-12 13:46:00,78.3,66.0,30.00,North,360,3.0,6.0,66,0.00,,---,0.00,VWS V14.01,2013-11-12 18:46:00,
2013-11-12 13:50:00,78.2,66.4,30.00,North,360,2.0,6.0,67,0.00,,---,0.00,VWS V14.01,2013-11-12 18:50:00,
2013-11-12 13:51:00,78.2,66.4,30.00,North,360,1.0,2.0,67,0.00,,---,0.00,VWS V14.01,2013-11-12 18:51:00,
2013-11-12 13:56:00,78.4,66.6,30.00,North,360,3.0,6.0,67,0.00,,---,0.00,VWS V14.01,2013-11-12 18:56:00,
2013-11-12 14:00:00,78.5,67.1,29.99,North,360,5.0,6.0,68,0.00,,---,0.00,VWS V14.01,2013-11-12 19:00:00,
2013-11-12 14:01:00,78.5,66.2,29.99,North,360,4.0,5.0,66,0.00,,---,0.00,VWS V14.01,2013-11-12 19:01:00,
2013-11-12 14:06:00,78.6,65.4,29.99,North,360,2.0,7.0,64,0.00,,---,0.00,VWS V14.01,2013-11-12 19:06:00,
2013-11-12 14:10:00,78.6,65.9,29.99,North,360,3.0,7.0,65,0.00,,---,0.00,VWS V14.01,2013-11-12 19:10:00,
2013-11-12 14:11:00,78.6,65.9,29.99,North,360,2.0,4.0,65,0.00,,---,0.00,VWS V14.01,2013-11-12 19:11:00,
2013-11-12 14:16:00,78.4,65.2,29.99,North,360,3.0,6.0,64,0.00,,---,0.00,VWS V14.01,2013-11-12 19:16:00,
2013-11-12 14:20:00,78.3,65.6,29.99,North,360,3.0,6.0,65,0.00,,---,0.00,VWS V14.01,2013-11-12 19:20:00,
2013-11-12 14:21:00,78.3,65.6,29.99,North,360,4.0,5.0,65,0.00,,---,0.00,VWS V14.01,2013-11-12 19:21:00,
2013-11-12 14:26:00,78.3,66.4,29.99,North,360,0.0,5.0,67,0.00,,---,0.00,VWS V14.01,2013-11-12 19:26:00,
2013-11-12 14:30:00,78.3,66.0,29.99,North,360,0.0,5.0,66,0.00,,---,0.00,VWS V14.01,2013-11-12 19:30:00,
2013-11-12 14:31:00,78.4,66.6,29.99,North,360,0.0,0.0,67,0.00,,---,0.00,VWS V14.01,2013-11-12 19:31:00,
2013-11-12 14:36:00,78.6,66.3,29.99,North,360,1.0,5.0,66,0.00,,---,0.00,VWS V14.01,2013-11-12 19:36:00,
2013-11-12 14:40:00,78.7,65.5,29.99,North,360,2.0,5.0,64,0.00,,---,0.00,VWS V14.01,2013-11-12 19:40:00,
2013-11-12 14:41:00,78.7,65.5,29.99,North,360,2.0,2.0,64,0.00,,---,0.00,VWS V14.01,2013-11-12 19:41:00,
2013-11-12 14:46:00,78.7,65.5,29.99,North,360,3.0,5.0,64,0.00,,---,0.00,VWS V14.01,2013-11-12 19:46:00,
2013-11-12 14:50:00,78.7,66.0,29.99,North,360,1.0,5.0,65,0.00,,---,0.00,VWS V14.01,2013-11-12 19:50:00,
2013-11-12 14:51:00,78.6,65.4,29.99,North,360,1.0,2.0,64,0.00,,---,0.00,VWS V14.01,2013-11-12 19:51:00,
2013-11-12 14:56:00,78.4,65.7,29.99,North,360,4.0,4.0,65,0.00,,---,0.00,VWS V14.01,2013-11-12 19:56:00,
2013-11-12 15:01:00,78.5,66.2,29.99,North,360,2.0,4.0,66,0.00,,---,0.00,VWS V14.01,2013-11-12 20:01:00,
2013-11-12 15:06:00,78.5,65.8,29.99,North,360,0.0,4.0,65,0.00,,---,0.00,VWS V14.01,2013-11-12 20:06:00,
2013-11-12 15:10:00,78.5,65.8,29.99,North,360,0.0,4.0,65,0.00,,---,0.00,VWS V14.01,2013-11-12 20:10:00,
2013-11-12 15:11:00,78.5,65.8,29.99,North,360,0.0,2.0,65,0.00,,---,0.00,VWS V14.01,2013-11-12 20:11:00,
2013-11-12 15:16:00,78.5,66.2,29.99,North,360,2.0,3.0,66,0.00,,---,0.00,VWS V14.01,2013-11-12 20:16:00,
2013-11-12 15:20:00,78.3,65.6,29.99,North,360,0.0,3.0,65,0.00,,---,0.00,VWS V14.01,2013-11-12 20:20:00,
2013-11-12 15:21:00,78.2,65.0,29.99,North,360,0.0,0.0,64,0.00,,---,0.00,VWS V14.01,2013-11-12 20:21:00,
2013-11-12 15:26:00,78.2,65.5,29.99,North,360,0.0,4.0,65,0.00,,---,0.00,VWS V14.01,2013-11-12 20:26:00,
2013-11-12 15:30:00,77.4,66.4,29.98,North,360,0.0,2.0,69,0.00,,---,0.00,VWS V14.01,2013-11-12 20:30:00,
2013-11-12 15:31:00,78.2,65.5,29.99,North,360,0.0,1.0,65,0.00,,---,0.00,VWS V14.01,2013-11-12 20:31:00,
2013-11-12 15:36:00,78.1,65.4,29.99,North,360,1.0,4.0,65,0.00,,---,0.00,VWS V14.01,2013-11-12 20:36:00,
2013-11-12 15:40:00,78.0,65.3,29.99,North,360,0.0,4.0,65,0.00,,---,0.00,VWS V14.01,2013-11-12 20:40:00,
2013-11-12 15:41:00,78.0,65.7,29.99,North,360,2.0,2.0,66,0.00,,---,0.00,VWS V14.01,2013-11-12 20:41:00,
2013-11-12 15:46:00,78.0,66.2,29.98,North,360,0.0,3.0,67,0.00,,---,0.00,VWS V14.01,2013-11-12 20:46:00,
2013-11-12 15:50:00,77.9,65.6,29.98,North,360,0.0,3.0,66,0.00,,---,0.00,VWS V14.01,2013-11-12 20:50:00,
2013-11-12 15:51:00,77.9,65.6,29.98,North,360,0.0,0.0,66,0.00,,---,0.00,VWS V14.01,2013-11-12 20:51:00,
2013-11-12 16:00:00,76.2,66.5,29.99,North,360,0.0,0.0,72,0.00,,---,0.00,VWS V14.01,2013-11-12 21:00:00,
2013-11-12 16:10:00,75.7,67.2,29.98,North,360,0.0,0.0,75,0.00,,---,0.00,VWS V14.01,2013-11-12 21:10:00,
2013-11-12 16:15:00,77.6,66.2,29.99,North,360,0.0,0.0,68,0.00,,---,0.00,VWS V14.01,2013-11-12 21:15:00,
2013-11-12 16:20:00,77.6,66.6,29.98,North,360,1.0,3.0,69,0.00,,---,0.00,VWS V14.01,2013-11-12 21:20:00,
2013-11-12 16:25:00,77.5,66.1,29.98,North,360,0.0,2.0,68,0.00,,---,0.00,VWS V14.01,2013-11-12 21:25:00,
2013-11-12 16:30:00,77.4,66.4,29.98,North,360,0.0,2.0,69,0.00,,---,0.00,VWS V14.01,2013-11-12 21:30:00,
2013-11-12 16:35:00,77.3,66.3,29.98,North,360,0.0,0.0,69,0.00,,---,0.00,VWS V14.01,2013-11-12 21:35:00,
2013-11-12 16:40:00,77.1,66.6,29.98,North,360,0.0,1.0,70,0.00,,---,0.00,VWS V14.01,2013-11-12 21:40:00,
2013-11-12 16:45:00,77.1,66.6,29.98,North,360,0.0,0.0,70,0.00,,---,0.00,VWS V14.01,2013-11-12 21:45:00,
2013-11-12 16:50:00,76.9,66.4,29.98,North,360,0.0,0.0,70,0.00,,---,0.00,VWS V14.01,2013-11-12 21:50:00,
2013-11-12 16:55:00,76.6,66.5,29.98,North,360,0.0,0.0,71,0.00,,---,0.00,VWS V14.01,2013-11-12 21:55:00,
2013-11-12 17:00:00,76.2,66.5,29.99,North,360,0.0,0.0,72,0.00,,---,0.00,VWS V14.01,2013-11-12 22:00:00,
2013-11-12 17:05:00,75.9,66.6,29.99,North,360,0.0,0.0,73,0.00,,---,0.00,VWS V14.01,2013-11-12 22:05:00,
2013-11-12 17:10:00,75.7,67.2,29.98,North,360,0.0,0.0,75,0.00,,---,0.00,VWS V14.01,2013-11-12 22:10:00,
2013-11-12 17:15:00,75.6,67.1,29.99,North,360,0.0,0.0,75,0.00,,---,0.00,VWS V14.01,2013-11-12 22:15:00,
2013-11-12 17:20:00,75.4,66.9,29.99,North,360,0.0,0.0,75,0.00,,---,0.00,VWS V14.01,2013-11-12 22:20:00,
2013-11-12 17:25:00,75.2,67.5,29.99,North,360,0.0,0.0,77,0.00,,---,0.00,VWS V14.01,2013-11-12 22:25:00,
2013-11-12 17:30:00,74.8,67.5,29.99,North,360,0.0,0.0,78,0.00,,---,0.00,VWS V14.01,2013-11-12 22:30:00,
2013-11-12 17:35:00,74.6,67.7,29.99,North,360,0.0,0.0,79,0.00,,---,0.00,VWS V14.01,2013-11-12 22:35:00,
2013-11-12 17:40:00,74.3,67.4,30.00,North,360,0.0,0.0,79,0.00,,---,0.00,VWS V14.01,2013-11-12 22:40:00,
2013-11-12 17:45:00,74.1,67.9,30.00,North,360,0.0,0.0,81,0.00,,---,0.00,VWS V14.01,2013-11-12 22:45:00,
2013-11-12 17:50:00,73.9,67.7,30.00,North,360,0.0,0.0,81,0.00,,---,0.00,VWS V14.01,2013-11-12 22:50:00,
2013-11-12 17:55:00,73.8,68.0,30.00,North,360,0.0,0.0,82,0.00,,---,0.00,VWS V14.01,2013-11-12 22:55:00,
2013-11-12 18:00:00,73.7,67.9,30.00,North,360,0.0,0.0,82,0.00,,---,0.00,VWS V14.01,2013-11-12 23:00:00,
2013-11-12 18:05:00,73.7,67.5,30.01,North,360,0.0,0.0,81,0.00,,---,0.00,VWS V14.01,2013-11-12 23:05:00,
2013-11-12 18:10:00,73.7,67.5,30.01,North,360,5.0,5.0,81,0.00,,---,0.00,VWS V14.01,2013-11-12 23:10:00,
2013-11-12 18:15:00,73.8,67.2,30.01,North,360,0.0,7.0,80,0.00,,---,0.00,VWS V14.01,2013-11-12 23:15:00,
2013-11-12 18:20:00,74.0,67.8,30.01,North,360,2.0,7.0,81,0.00,,---,0.00,VWS V14.01,2013-11-12 23:20:00,
2013-11-12 18:25:00,74.0,67.8,30.01,North,360,4.0,5.0,81,0.00,,---,0.00,VWS V14.01,2013-11-12 23:25:00,
2013-11-12 18:30:00,73.9,68.1,30.01,North,360,6.0,6.0,82,0.00,,---,0.00,VWS V14.01,2013-11-12 23:30:00,
2013-11-12 18:35:00,73.8,68.0,30.01,North,360,4.0,7.0,82,0.00,,---,0.00,VWS V14.01,2013-11-12 23:35:00,
2013-11-12 18:40:00,73.7,67.9,30.01,North,360,4.0,7.0,82,0.00,,---,0.00,VWS V14.01,2013-11-12 23:40:00,
2013-11-12 18:45:00,73.7,67.9,30.02,North,360,6.0,6.0,82,0.00,,---,0.00,VWS V14.01,2013-11-12 23:45:00,
2013-11-12 18:50:00,73.6,68.1,30.02,North,360,4.0,8.0,83,0.00,,---,0.00,VWS V14.01,2013-11-12 23:50:00,
2013-11-12 18:55:00,73.6,68.1,30.02,North,360,3.0,5.0,83,0.00,,---,0.00,VWS V14.01,2013-11-12 23:55:00,
2013-11-12 19:00:00,73.5,68.0,30.03,North,360,6.0,9.0,83,0.00,,---,0.00,VWS V14.01,2013-11-13 00:00:00,
2013-11-12 19:05:00,73.4,67.9,30.03,North,360,3.0,7.0,83,0.00,,---,0.00,VWS V14.01,2013-11-13 00:05:00,
2013-11-12 19:10:00,73.4,67.9,30.03,North,360,0.0,7.0,83,0.00,,---,0.00,VWS V14.01,2013-11-13 00:10:00,
2013-11-12 19:15:00,73.3,68.2,30.03,North,360,3.0,7.0,84,0.00,,---,0.00,VWS V14.01,2013-11-13 00:15:00,
2013-11-12 19:20:00,73.2,68.1,30.03,North,360,2.0,7.0,84,0.00,,---,0.00,VWS V14.01,2013-11-13 00:20:00,
2013-11-12 19:25:00,73.1,68.0,30.04,North,360,2.0,4.0,84,0.00,,---,0.00,VWS V14.01,2013-11-13 00:25:00,
2013-11-12 19:30:00,73.0,67.9,30.04,North,360,2.0,7.0,84,0.00,,---,0.00,VWS V14.01,2013-11-13 00:30:00,
2013-11-12 19:35:00,73.0,67.9,30.04,North,360,0.0,3.0,84,0.00,,---,0.00,VWS V14.01,2013-11-13 00:35:00,
2013-11-12 19:40:00,72.9,67.8,30.04,North,360,4.0,5.0,84,0.00,,---,0.00,VWS V14.01,2013-11-13 00:40:00,
2013-11-12 19:45:00,72.7,67.6,30.04,North,360,2.0,4.0,84,0.00,,---,0.00,VWS V14.01,2013-11-13 00:45:00,
2013-11-12 19:50:00,72.6,67.8,30.05,North,360,1.0,4.0,85,0.00,,---,0.00,VWS V14.01,2013-11-13 00:50:00,
2013-11-12 19:55:00,72.5,67.7,30.05,North,360,4.0,5.0,85,0.00,,---,0.00,VWS V14.01,2013-11-13 00:55:00,
2013-11-12 20:00:00,72.5,67.7,30.05,North,360,1.0,6.0,85,0.00,,---,0.00,VWS V14.01,2013-11-13 01:00:00,
2013-11-12 20:05:00,72.5,67.7,30.05,North,360,1.0,4.0,85,0.00,,---,0.00,VWS V14.01,2013-11-13 01:05:00,
2013-11-12 20:10:00,72.4,67.6,30.06,North,360,5.0,5.0,85,0.00,,---,0.00,VWS V14.01,2013-11-13 01:10:00,
2013-11-12 20:15:00,72.4,67.6,30.06,North,360,0.0,6.0,85,0.00,,---,0.00,VWS V14.01,2013-11-13 01:15:00,
2013-11-12 20:20:00,72.3,67.5,30.05,North,360,2.0,6.0,85,0.00,,---,0.00,VWS V14.01,2013-11-13 01:20:00,
2013-11-12 20:25:00,72.2,67.4,30.05,North,360,5.0,5.0,85,0.00,,---,0.00,VWS V14.01,2013-11-13 01:25:00,
2013-11-12 20:30:00,72.1,67.3,30.05,North,360,0.0,5.0,85,0.00,,---,0.00,VWS V14.01,2013-11-13 01:30:00,
2013-11-12 20:35:00,71.9,67.5,30.05,North,360,0.0,5.0,86,0.00,,---,0.00,VWS V14.01,2013-11-13 01:35:00,
2013-11-12 20:40:00,71.8,67.7,30.06,North,360,0.0,5.0,87,0.00,,---,0.00,VWS V14.01,2013-11-13 01:40:00,
2013-11-12 20:45:00,71.5,67.4,30.06,North,360,3.0,3.0,87,0.00,,---,0.00,VWS V14.01,2013-11-13 01:45:00,
2013-11-12 20:50:00,71.2,67.5,30.07,North,360,1.0,4.0,88,0.00,,---,0.00,VWS V14.01,2013-11-13 01:50:00,
2013-11-12 20:55:00,71.1,67.4,30.07,North,360,0.0,2.0,88,0.00,,---,0.00,VWS V14.01,2013-11-13 01:55:00,
2013-11-12 21:00:00,71.0,67.6,30.06,North,360,1.0,2.0,89,0.00,,---,0.00,VWS V14.01,2013-11-13 02:00:00,
2013-11-12 21:05:00,71.0,67.6,30.06,North,360,0.0,2.0,89,0.00,,---,0.00,VWS V14.01,2013-11-13 02:05:00,
2013-11-12 21:10:00,70.9,67.5,30.06,North,360,0.0,2.0,89,0.00,,---,0.00,VWS V14.01,2013-11-13 02:10:00,
2013-11-12 21:15:00,70.8,67.4,30.06,North,360,0.0,1.0,89,0.00,,---,0.00,VWS V14.01,2013-11-13 02:15:00,
2013-11-12 21:20:00,70.8,67.7,30.06,North,360,0.0,1.0,90,0.00,,---,0.00,VWS V14.01,2013-11-13 02:20:00,
2013-11-12 21:25:00,70.7,67.6,30.06,North,360,0.0,0.0,90,0.00,,---,0.00,VWS V14.01,2013-11-13 02:25:00,
2013-11-12 21:30:00,70.7,67.9,30.05,North,360,1.0,2.0,91,0.00,,---,0.00,VWS V14.01,2013-11-13 02:30:00,
2013-11-12 21:35:00,70.5,67.8,30.06,North,360,0.0,2.0,91,0.00,,---,0.00,VWS V14.01,2013-11-13 02:35:00,
2013-11-12 21:40:00,70.4,67.7,30.07,North,360,0.0,2.0,91,0.00,,---,0.00,VWS V14.01,2013-11-13 02:40:00,
2013-11-12 21:45:00,70.3,67.6,30.07,North,360,1.0,2.0,91,0.00,,---,0.00,VWS V14.01,2013-11-13 02:45:00,
2013-11-12 21:50:00,70.3,67.6,30.07,North,360,2.0,4.0,91,0.00,,---,0.00,VWS V14.01,2013-11-13 02:50:00,
2013-11-12 21:55:00,70.3,67.6,30.07,North,360,2.0,3.0,91,0.00,,---,0.00,VWS V14.01,2013-11-13 02:55:00,
2013-11-12 22:00:00,70.3,67.6,30.08,North,360,1.0,7.0,91,0.00,,---,0.00,VWS V14.01,2013-11-13 03:00:00,
2013-11-12 22:05:00,70.1,67.0,30.08,North,360,5.0,10.0,90,0.00,,---,0.00,VWS V14.01,2013-11-13 03:05:00,
2013-11-12 22:10:00,70.1,66.7,30.08,North,360,4.0,10.0,89,0.00,,---,0.00,VWS V14.01,2013-11-13 03:10:00,
2013-11-12 22:15:00,69.9,65.9,30.07,North,360,6.0,11.0,87,0.00,,---,0.00,VWS V14.01,2013-11-13 03:15:00,
2013-11-12 22:20:00,69.8,65.4,30.07,North,360,4.0,11.0,86,0.00,,---,0.00,VWS V14.01,2013-11-13 03:20:00,
2013-11-12 22:25:00,69.6,64.9,30.07,North,360,2.0,10.0,85,0.00,,---,0.00,VWS V14.01,2013-11-13 03:25:00,
2013-11-12 22:30:00,69.5,64.8,30.07,North,360,5.0,10.0,85,0.00,,---,0.00,VWS V14.01,2013-11-13 03:30:00,
2013-11-12 22:35:00,69.4,64.7,30.07,North,360,8.0,9.0,85,0.00,,---,0.00,VWS V14.01,2013-11-13 03:35:00,
2013-11-12 22:40:00,69.2,64.5,30.07,North,360,5.0,9.0,85,0.00,,---,0.00,VWS V14.01,2013-11-13 03:40:00,
2013-11-12 22:45:00,69.0,64.3,30.07,North,360,4.0,7.0,85,0.00,,---,0.00,VWS V14.01,2013-11-13 03:45:00,
2013-11-12 22:50:00,68.9,63.9,30.07,North,360,4.0,10.0,84,0.00,,---,0.00,VWS V14.01,2013-11-13 03:50:00,
2013-11-12 22:55:00,68.8,63.8,30.08,North,360,5.0,8.0,84,0.00,,---,0.00,VWS V14.01,2013-11-13 03:55:00,
2013-11-12 23:00:00,68.8,63.8,30.08,North,360,6.0,8.0,84,0.00,,---,0.00,VWS V14.01,2013-11-13 04:00:00,
2013-11-12 23:05:00,68.7,63.7,30.08,North,360,7.0,9.0,84,0.00,,---,0.00,VWS V14.01,2013-11-13 04:05:00,
2013-11-12 23:10:00,68.7,63.7,30.08,North,360,6.0,9.0,84,0.00,,---,0.00,VWS V14.01,2013-11-13 04:10:00,
2013-11-12 23:15:00,68.7,63.7,30.08,North,360,5.0,9.0,84,0.00,,---,0.00,VWS V14.01,2013-11-13 04:15:00,
2013-11-12 23:20:00,68.6,63.6,30.08,North,360,5.0,10.0,84,0.00,,---,0.00,VWS V14.01,2013-11-13 04:20:00,
2013-11-12 23:25:00,68.6,63.6,30.08,North,360,8.0,8.0,84,0.00,,---,0.00,VWS V14.01,2013-11-13 04:25:00,
2013-11-12 23:30:00,68.5,63.5,30.08,North,360,6.0,8.0,84,0.00,,---,0.00,VWS V14.01,2013-11-13 04:30:00,
2013-11-12 23:35:00,68.4,63.7,30.08,North,360,4.0,7.0,85,0.00,,---,0.00,VWS V14.01,2013-11-13 04:35:00,
2013-11-12 23:40:00,68.3,63.6,30.08,North,360,6.0,8.0,85,0.00,,---,0.00,VWS V14.01,2013-11-13 04:40:00,
2013-11-12 23:45:00,68.2,63.9,30.08,North,360,4.0,10.0,86,0.00,,---,0.00,VWS V14.01,2013-11-13 04:45:00,
2013-11-12 23:50:00,68.2,63.5,30.08,North,360,4.0,10.0,85,0.00,,---,0.00,VWS V14.01,2013-11-13 04:50:00,
2013-11-12 23:55:00,68.1,63.8,30.07,North,360,7.0,10.0,86,0.00,,---,0.00,VWS V14.01,2013-11-13 04:55:00,